Tropical Cyclones
[Index]
Main Index Home Page Stock Weather Photos Extreme Storms Discussion Storm News and Storm Chasing Reports Tropical Cyclones / Hurricanes / Typhoons Weather Data and Links Wild Fires / Bushfires Weather Observation Techniques Weather Picture Catalogue Tornado Pictures and Reports Stock Video Footage and DVDs for sale
Season 1963-1964 Tropical Cyclone AUDREY Track Map
Season 1963-1964 Summaries: [BoM-AU] [JTWC-AU] [JTWC-SIO] [JTWC-SPAC] [JTWC-SH]
<<- Previous TC | BoM 1963-1964 Season | Next TC ->>

click for intensity scale information  Lat/long Grid: Show Hide

 Date Labels: Show Hide

Bureau of Meteorology Tropical Cyclone Data

Name: AUDREY
Number: 381 / 196364_03

06 Jan 1964 23:00 UTC to 14 Jan 1964 08:00 UTC

    date/time    lat    long    hPa   cat  kts
1964-01-06 23   10.2   141.5   1000                     
1964-01-07 02   10.5   142.2    999                     
1964-01-07 11   10.9   142.2    999                     
1964-01-07 17   11.2   142.0    999                     
1964-01-07 23   11.6   141.7    998                     
1964-01-08 11   11.9   141.5    996                     
1964-01-08 23   12.4   141.3    992    1                
1964-01-09 11   13.3   141.2    992    1                
1964-01-09 23   14.2   141.0    988    1                
1964-01-10 11   15.2   140.5    986    1                
1964-01-10 23   16.3   139.6    983    2                
1964-01-11 06   16.9   139.0    983    2                
1964-01-11 11   17.2   138.3    985    2                
1964-01-11 23   18.6   137.3    985    2                
1964-01-12 05   19.7   136.5    985    2                
1964-01-12 11   20.3   136.4    989    1                
1964-01-12 23   22.0   138.5    988    1                
1964-01-13 05   23.0   139.7    987    1                
1964-01-13 08   24.7   141.3    987    1                
1964-01-13 11   25.5   142.7    986    1                
1964-01-13 14   26.5   143.9    986    1                
1964-01-13 17   27.2   145.6    985    2                
1964-01-13 23   28.3   149.1    984    2                
1964-01-14 02   29.7   151.3    984    2                
1964-01-14 04   30.2   153.1    988    1                
1964-01-14 08   31.7   156.1    990    1                
Winds are 10-min average.

Tropical cyclone tracks developed by Michael Bath using data from the Bureau of Meteorology and Google Maps.


[Australian Severe Weather index] [Copyright Notice] [Email Contacts] [Search This Site] [Privacy Policy]
Document: tropical_cyclone_audrey.htm Updated: 30 May 2013